Arsenal, Arkansas
Current Conditions -  °F | °C
As of 8:53 PM on Sunday 21 Dec 2014 (Local Time) from KPBF Reporting Station
Scattered Clouds Scattered Clouds  
Wind Chill: 39°   Ceiling: Unl
Heat Index: 43°   Visibility: 10mi
Dew Point: 38°   Wind: 6mph
Humidity: 82%   Direction: 90°E
Pressure: 29.93"   Gusts: NA
Location:  34.193°N, 91.9403°W
Report Text: KPBF 220253Z AUTO 09005KT 10SM SCT080 06/03 A2993 RMK AO2 SLP135 T00610033 58010
Loading
Personal Weather Stations






























Interactive Weather Map New forecast layout! Learn more

10-Day Weather Forecast

Advertisements
Track Severe Weather on mobile